sensor_id;sensor_type;location;lat;lon;timestamp;pressure;altitude;pressure_sealevel;temperature;humidity
75913;BME280;64592;52.168;21.040;2023-04-03T00:03:50;100943.31;;;2.12;60.74
75913;BME280;64592;52.168;21.040;2023-04-03T00:08:52;100933.84;;;2.03;61.02
75913;BME280;64592;52.168;21.040;2023-04-03T00:13:54;100934.78;;;2.01;61.68
75913;BME280;64592;52.168;21.040;2023-04-03T00:18:57;100936.97;;;1.88;61.10
75913;BME280;64592;52.168;21.040;2023-04-03T00:23:59;100931.81;;;1.83;60.31
75913;BME280;64592;52.168;21.040;2023-04-03T00:29:01;100930.25;;;1.76;60.65
75913;BME280;64592;52.168;21.040;2023-04-03T00:34:04;100943.84;;;1.66;60.77
75913;BME280;64592;52.168;21.040;2023-04-03T00:39:05;100950.22;;;1.60;60.76
75913;BME280;64592;52.168;21.040;2023-04-03T00:44:21;100945.09;;;1.54;61.04
75913;BME280;64592;52.168;21.040;2023-04-03T00:49:25;100951.53;;;1.45;60.54
75913;BME280;64592;52.168;21.040;2023-04-03T00:54:27;100953.28;;;1.46;61.09
75913;BME280;64592;52.168;21.040;2023-04-03T00:59:32;100959.69;;;1.39;60.41
75913;BME280;64592;52.168;21.040;2023-04-03T01:04:38;100956.31;;;1.33;60.96
75913;BME280;64592;52.168;21.040;2023-04-03T01:09:40;100973.13;;;1.33;61.14
75913;BME280;64592;52.168;21.040;2023-04-03T01:14:42;100976.25;;;1.16;60.92
75913;BME280;64592;52.168;21.040;2023-04-03T01:19:51;100982.59;;;1.11;60.93
75913;BME280;64592;52.168;21.040;2023-04-03T01:24:58;100993.28;;;1.08;61.08
75913;BME280;64592;52.168;21.040;2023-04-03T01:30:00;100990.69;;;1.05;60.68
75913;BME280;64592;52.168;21.040;2023-04-03T01:35:07;100998.75;;;1.02;60.39
75913;BME280;64592;52.168;21.040;2023-04-03T01:40:10;101010.31;;;0.99;60.72
75913;BME280;64592;52.168;21.040;2023-04-03T01:45:12;101015.78;;;0.93;62.10
75913;BME280;64592;52.168;21.040;2023-04-03T01:50:15;101023.91;;;0.87;61.49
75913;BME280;64592;52.168;21.040;2023-04-03T01:55:16;101018.63;;;0.86;61.89
75913;BME280;64592;52.168;21.040;2023-04-03T02:00:18;101026.06;;;0.71;61.88
75913;BME280;64592;52.168;21.040;2023-04-03T02:05:22;101019.94;;;0.68;62.04
75913;BME280;64592;52.168;21.040;2023-04-03T02:10:23;101021.06;;;0.59;62.26
75913;BME280;64592;52.168;21.040;2023-04-03T02:15:25;101029.78;;;0.64;61.71
75913;BME280;64592;52.168;21.040;2023-04-03T02:20:28;101031.75;;;0.55;62.49
75913;BME280;64592;52.168;21.040;2023-04-03T02:25:30;101037.97;;;0.54;61.94
75913;BME280;64592;52.168;21.040;2023-04-03T02:30:33;101035.66;;;0.40;62.51
75913;BME280;64592;52.168;21.040;2023-04-03T02:35:36;101044.50;;;0.39;62.79
75913;BME280;64592;52.168;21.040;2023-04-03T02:40:38;101046.53;;;0.28;63.01
75913;BME280;64592;52.168;21.040;2023-04-03T02:45:39;101044.78;;;0.27;63.29
75913;BME280;64592;52.168;21.040;2023-04-03T02:50:43;101042.22;;;0.22;63.05
75913;BME280;64592;52.168;21.040;2023-04-03T02:55:45;101051.13;;;0.20;63.09
75913;BME280;64592;52.168;21.040;2023-04-03T03:00:46;101052.00;;;0.20;62.86
75913;BME280;64592;52.168;21.040;2023-04-03T03:05:49;101053.97;;;0.12;63.60
75913;BME280;64592;52.168;21.040;2023-04-03T03:10:51;101056.75;;;0.06;63.65
75913;BME280;64592;52.168;21.040;2023-04-03T03:15:53;101053.38;;;-0.02;63.94
75913;BME280;64592;52.168;21.040;2023-04-03T03:20:58;101053.38;;;-0.02;63.76
75913;BME280;64592;52.168;21.040;2023-04-03T03:26:02;101059.69;;;-0.08;63.98
75913;BME280;64592;52.168;21.040;2023-04-03T03:31:04;101042.09;;;-0.12;64.92
75913;BME280;64592;52.168;21.040;2023-04-03T03:36:08;101058.91;;;-0.14;64.57
75913;BME280;64592;52.168;21.040;2023-04-03T03:41:09;101062.50;;;-0.17;64.72
75913;BME280;64592;52.168;21.040;2023-04-03T03:46:11;101056.41;;;-0.22;65.51
75913;BME280;64592;52.168;21.040;2023-04-03T03:51:14;101067.16;;;-0.29;65.81
75913;BME280;64592;52.168;21.040;2023-04-03T03:56:16;101068.13;;;-0.33;65.93
75913;BME280;64592;52.168;21.040;2023-04-03T04:01:18;101077.84;;;-0.34;65.75
75913;BME280;64592;52.168;21.040;2023-04-03T04:06:22;101074.44;;;-0.39;65.65
75913;BME280;64592;52.168;21.040;2023-04-03T04:11:23;101085.94;;;-0.40;65.90
75913;BME280;64592;52.168;21.040;2023-04-03T04:16:25;101093.91;;;-0.43;66.27
75913;BME280;64592;52.168;21.040;2023-04-03T04:21:28;101097.53;;;-0.47;65.97
75913;BME280;64592;52.168;21.040;2023-04-03T04:26:30;101095.78;;;-0.48;65.90
75913;BME280;64592;52.168;21.040;2023-04-03T04:31:32;101100.31;;;-0.55;66.02
75913;BME280;64592;52.168;21.040;2023-04-03T04:36:35;101104.78;;;-0.58;65.77
75913;BME280;64592;52.168;21.040;2023-04-03T04:41:36;101110.06;;;-0.58;65.85
75913;BME280;64592;52.168;21.040;2023-04-03T04:46:38;101126.91;;;-0.61;66.25
75913;BME280;64592;52.168;21.040;2023-04-03T04:51:41;101118.09;;;-0.61;66.26
75913;BME280;64592;52.168;21.040;2023-04-03T04:56:43;101132.22;;;-0.61;66.97
75913;BME280;64592;52.168;21.040;2023-04-03T05:01:44;101125.19;;;-0.63;66.96
75913;BME280;64592;52.168;21.040;2023-04-03T05:06:48;101141.97;;;-0.64;67.57
75913;BME280;64592;52.168;21.040;2023-04-03T05:11:49;101145.63;;;-0.71;67.30
75913;BME280;64592;52.168;21.040;2023-04-03T05:16:51;101144.75;;;-0.73;67.92
75913;BME280;64592;52.168;21.040;2023-04-03T05:21:55;101146.50;;;-0.71;67.03
75913;BME280;64592;52.168;21.040;2023-04-03T05:26:57;101147.25;;;-0.64;66.29
75913;BME280;64592;52.168;21.040;2023-04-03T05:31:59;101150.78;;;-0.64;67.01
75913;BME280;64592;52.168;21.040;2023-04-03T05:37:02;101162.09;;;-0.54;66.31
75913;BME280;64592;52.168;21.040;2023-04-03T05:42:05;101167.28;;;-0.50;66.76
75913;BME280;64592;52.168;21.040;2023-04-03T05:47:07;101178.72;;;-0.46;66.51
75913;BME280;64592;52.168;21.040;2023-04-03T05:52:18;101172.41;;;-0.39;66.63
75913;BME280;64592;52.168;21.040;2023-04-03T05:57:22;101170.50;;;-0.31;66.06
75913;BME280;64592;52.168;21.040;2023-04-03T06:02:24;101162.56;;;-0.31;66.09
75913;BME280;64592;52.168;21.040;2023-04-03T06:07:28;101171.19;;;-0.20;66.50
75913;BME280;64592;52.168;21.040;2023-04-03T06:12:30;101181.72;;;-0.17;64.66
75913;BME280;64592;52.168;21.040;2023-04-03T06:17:32;101173.75;;;-0.15;64.90
75913;BME280;64592;52.168;21.040;2023-04-03T06:22:35;101186.94;;;-0.14;64.43
75913;BME280;64592;52.168;21.040;2023-04-03T06:27:36;101200.00;;;-0.02;64.55
75913;BME280;64592;52.168;21.040;2023-04-03T06:32:38;101189.44;;;-0.05;64.56
75913;BME280;64592;52.168;21.040;2023-04-03T06:37:42;101206.19;;;-0.03;64.08
75913;BME280;64592;52.168;21.040;2023-04-03T06:42:43;101190.41;;;-0.09;64.09
75913;BME280;64592;52.168;21.040;2023-04-03T06:47:45;101199.03;;;0.03;64.44
75913;BME280;64592;52.168;21.040;2023-04-03T06:52:48;101203.41;;;0.05;64.19
75913;BME280;64592;52.168;21.040;2023-04-03T06:57:50;101211.50;;;-0.03;65.04
75913;BME280;64592;52.168;21.040;2023-04-03T07:02:52;101219.28;;;0.07;64.78
75913;BME280;64592;52.168;21.040;2023-04-03T07:07:55;101228.78;;;0.17;63.26
75913;BME280;64592;52.168;21.040;2023-04-03T07:12:57;101231.13;;;0.33;63.54
75913;BME280;64592;52.168;21.040;2023-04-03T07:17:58;101231.84;;;0.42;62.42
75913;BME280;64592;52.168;21.040;2023-04-03T07:23:02;101236.88;;;0.55;62.85
75913;BME280;64592;52.168;21.040;2023-04-03T07:28:04;101239.38;;;0.61;61.35
75913;BME280;64592;52.168;21.040;2023-04-03T07:33:05;101234.88;;;0.66;60.61
75913;BME280;64592;52.168;21.040;2023-04-03T07:38:09;101247.81;;;0.82;60.66
75913;BME280;64592;52.168;21.040;2023-04-03T07:43:11;101243.19;;;0.90;59.66
75913;BME280;64592;52.168;21.040;2023-04-03T07:48:13;101241.47;;;0.89;58.22
75913;BME280;64592;52.168;21.040;2023-04-03T07:53:18;101244.75;;;1.00;59.20
75913;BME280;64592;52.168;21.040;2023-04-03T07:58:20;101237.47;;;1.09;58.29
75913;BME280;64592;52.168;21.040;2023-04-03T08:03:21;101236.66;;;1.06;56.41
75913;BME280;64592;52.168;21.040;2023-04-03T08:08:24;101245.28;;;1.17;55.64
75913;BME280;64592;52.168;21.040;2023-04-03T08:13:26;101253.84;;;1.28;56.31
75913;BME280;64592;52.168;21.040;2023-04-03T08:18:28;101234.91;;;1.43;54.60
75913;BME280;64592;52.168;21.040;2023-04-03T08:23:31;101254.44;;;1.41;54.17
75913;BME280;64592;52.168;21.040;2023-04-03T08:28:33;101248.94;;;1.48;53.90
75913;BME280;64592;52.168;21.040;2023-04-03T08:33:34;101259.28;;;1.61;52.76
75913;BME280;64592;52.168;21.040;2023-04-03T08:38:38;101249.03;;;1.81;52.29
75913;BME280;64592;52.168;21.040;2023-04-03T08:43:56;101263.13;;;1.84;51.79
75913;BME280;64592;52.168;21.040;2023-04-03T08:49:00;101250.25;;;2.02;52.54
75913;BME280;64592;52.168;21.040;2023-04-03T08:54:06;101265.75;;;2.20;51.48
75913;BME280;64592;52.168;21.040;2023-04-03T08:59:21;101259.78;;;2.10;48.69
75913;BME280;64592;52.168;21.040;2023-04-03T09:04:27;101258.63;;;2.22;46.95
75913;BME280;64592;52.168;21.040;2023-04-03T09:09:35;101257.59;;;2.58;47.01
75913;BME280;64592;52.168;21.040;2023-04-03T09:14:46;101261.63;;;2.73;48.84
75913;BME280;64592;52.168;21.040;2023-04-03T09:19:54;101244.81;;;2.71;46.35
75913;BME280;64592;52.168;21.040;2023-04-03T09:25:02;101247.53;;;2.68;45.32
75913;BME280;64592;52.168;21.040;2023-04-03T09:30:13;101263.44;;;2.39;45.97
75913;BME280;64592;52.168;21.040;2023-04-03T09:35:20;101253.41;;;2.50;45.92
75913;BME280;64592;52.168;21.040;2023-04-03T09:40:33;101249.50;;;2.92;45.86
75913;BME280;64592;52.168;21.040;2023-04-03T09:45:36;101254.81;;;2.92;45.54
75913;BME280;64592;52.168;21.040;2023-04-03T09:50:41;101266.59;;;2.84;45.62
75913;BME280;64592;52.168;21.040;2023-04-03T09:55:57;101263.94;;;3.13;45.15
75913;BME280;64592;52.168;21.040;2023-04-03T10:01:01;101253.06;;;3.48;45.03
75913;BME280;64592;52.168;21.040;2023-04-03T10:06:04;101269.59;;;3.60;44.15
75913;BME280;64592;52.168;21.040;2023-04-03T10:11:12;101278.59;;;3.83;42.95
75913;BME280;64592;52.168;21.040;2023-04-03T10:16:17;101271.25;;;4.16;42.93
75913;BME280;64592;52.168;21.040;2023-04-03T10:21:32;101264.13;;;4.66;43.00
75913;BME280;64592;52.168;21.040;2023-04-03T10:26:44;101264.88;;;4.45;41.64
75913;BME280;64592;52.168;21.040;2023-04-03T10:31:52;101266.50;;;4.51;40.66
75913;BME280;64592;52.168;21.040;2023-04-03T10:37:05;101252.72;;;4.86;41.43
75913;BME280;64592;52.168;21.040;2023-04-03T10:42:15;101262.63;;;4.83;40.85
75913;BME280;64592;52.168;21.040;2023-04-03T10:47:22;101248.81;;;4.47;40.75
75913;BME280;64592;52.168;21.040;2023-04-03T10:52:30;101259.44;;;4.73;41.13
75913;BME280;64592;52.168;21.040;2023-04-03T10:57:39;101253.06;;;5.00;40.48
75913;BME280;64592;52.168;21.040;2023-04-03T11:02:48;101221.69;;;4.82;40.84
75913;BME280;64592;52.168;21.040;2023-04-03T11:07:53;101252.88;;;4.58;41.09
75913;BME280;64592;52.168;21.040;2023-04-03T11:13:06;101255.59;;;4.57;42.19
75913;BME280;64592;52.168;21.040;2023-04-03T11:18:12;101262.03;;;4.75;41.39
75913;BME280;64592;52.168;21.040;2023-04-03T11:23:19;101252.84;;;4.82;40.85
75913;BME280;64592;52.168;21.040;2023-04-03T11:28:24;101250.06;;;5.31;40.56
75913;BME280;64592;52.168;21.040;2023-04-03T11:33:41;101231.84;;;5.41;39.72
75913;BME280;64592;52.168;21.040;2023-04-03T11:38:47;101239.66;;;5.02;41.10
75913;BME280;64592;52.168;21.040;2023-04-03T11:43:58;101241.31;;;5.50;40.13
75913;BME280;64592;52.168;21.040;2023-04-03T11:49:00;101233.72;;;4.94;39.19
75913;BME280;64592;52.168;21.040;2023-04-03T11:54:36;101241.00;;;5.12;38.67
75913;BME280;64592;52.168;21.040;2023-04-03T11:59:45;101236.94;;;5.25;40.02
75913;BME280;64592;52.168;21.040;2023-04-03T12:05:27;101229.53;;;4.87;39.17
75913;BME280;64592;52.168;21.040;2023-04-03T12:10:29;101239.84;;;5.19;39.92
75913;BME280;64592;52.168;21.040;2023-04-03T12:15:50;101228.50;;;5.36;39.01
75913;BME280;64592;52.168;21.040;2023-04-03T12:20:56;101230.41;;;5.11;39.65
75913;BME280;64592;52.168;21.040;2023-04-03T12:26:18;101225.38;;;5.25;39.16
75913;BME280;64592;52.168;21.040;2023-04-03T12:31:24;101234.09;;;5.52;39.66
75913;BME280;64592;52.168;21.040;2023-04-03T12:36:33;101227.38;;;5.41;38.26
75913;BME280;64592;52.168;21.040;2023-04-03T12:41:44;101212.75;;;5.50;37.29
75913;BME280;64592;52.168;21.040;2023-04-03T12:46:51;101220.66;;;5.31;37.49
75913;BME280;64592;52.168;21.040;2023-04-03T12:51:59;101227.25;;;5.23;38.74
75913;BME280;64592;52.168;21.040;2023-04-03T12:57:12;101218.69;;;5.13;37.71
75913;BME280;64592;52.168;21.040;2023-04-03T13:02:21;101228.38;;;5.17;38.54
75913;BME280;64592;52.168;21.040;2023-04-03T13:07:28;101230.50;;;5.31;39.50
75913;BME280;64592;52.168;21.040;2023-04-03T13:12:46;101227.44;;;5.18;39.41
75913;BME280;64592;52.168;21.040;2023-04-03T13:17:49;101222.78;;;5.23;38.09
75913;BME280;64592;52.168;21.040;2023-04-03T13:23:00;101214.41;;;5.54;36.75
75913;BME280;64592;52.168;21.040;2023-04-03T13:28:04;101214.19;;;5.59;38.10
75913;BME280;64592;52.168;21.040;2023-04-03T13:33:21;101203.41;;;5.82;38.97
75913;BME280;64592;52.168;21.040;2023-04-03T13:38:28;101222.47;;;5.53;38.45
75913;BME280;64592;52.168;21.040;2023-04-03T13:43:33;101211.84;;;5.29;39.25
75913;BME280;64592;52.168;21.040;2023-04-03T13:48:40;101214.00;;;5.20;38.83
75913;BME280;64592;52.168;21.040;2023-04-03T13:53:48;101221.28;;;5.16;39.62
75913;BME280;64592;52.168;21.040;2023-04-03T13:58:57;101226.09;;;5.06;39.89
75913;BME280;64592;52.168;21.040;2023-04-03T14:04:01;101216.22;;;5.08;39.30
75913;BME280;64592;52.168;21.040;2023-04-03T14:09:13;101219.97;;;5.26;38.97
75913;BME280;64592;52.168;21.040;2023-04-03T14:14:18;101219.84;;;5.29;39.53
75913;BME280;64592;52.168;21.040;2023-04-03T14:19:23;101218.75;;;5.12;39.23
75913;BME280;64592;52.168;21.040;2023-04-03T14:24:27;101220.94;;;5.47;39.47
75913;BME280;64592;52.168;21.040;2023-04-03T14:29:28;101220.78;;;5.28;38.67
75913;BME280;64592;52.168;21.040;2023-04-03T14:34:30;101204.94;;;5.24;39.04
75913;BME280;64592;52.168;21.040;2023-04-03T14:39:33;101189.25;;;5.15;39.26
75913;BME280;64592;52.168;21.040;2023-04-03T14:44:35;101212.50;;;5.13;38.14
75913;BME280;64592;52.168;21.040;2023-04-03T14:49:37;101207.44;;;5.05;38.91
75913;BME280;64592;52.168;21.040;2023-04-03T14:54:40;101212.50;;;4.89;39.33
75913;BME280;64592;52.168;21.040;2023-04-03T14:59:42;101215.56;;;4.80;39.42
75913;BME280;64592;52.168;21.040;2023-04-03T15:04:44;101226.16;;;4.82;39.38
75913;BME280;64592;52.168;21.040;2023-04-03T15:09:47;101194.00;;;4.85;39.31
75913;BME280;64592;52.168;21.040;2023-04-03T15:14:49;101207.59;;;4.79;39.73
75913;BME280;64592;52.168;21.040;2023-04-03T15:19:51;101211.75;;;4.86;39.60
75913;BME280;64592;52.168;21.040;2023-04-03T15:24:54;101208.50;;;4.78;38.41
75913;BME280;64592;52.168;21.040;2023-04-03T15:29:56;101206.03;;;4.73;38.79
75913;BME280;64592;52.168;21.040;2023-04-03T15:34:58;101218.56;;;4.71;39.68
75913;BME280;64592;52.168;21.040;2023-04-03T15:40:05;101217.88;;;4.66;41.14
75913;BME280;64592;52.168;21.040;2023-04-03T15:45:08;101222.53;;;4.59;41.21
75913;BME280;64592;52.168;21.040;2023-04-03T15:50:10;101223.59;;;4.55;41.67
75913;BME280;64592;52.168;21.040;2023-04-03T15:55:13;101220.22;;;4.50;39.68
75913;BME280;64592;52.168;21.040;2023-04-03T16:00:15;101229.16;;;4.49;40.00
75913;BME280;64592;52.168;21.040;2023-04-03T16:05:18;101222.06;;;4.48;40.20
75913;BME280;64592;52.168;21.040;2023-04-03T16:10:22;101225.91;;;4.41;41.18
75913;BME280;64592;52.168;21.040;2023-04-03T16:15:24;101217.97;;;4.38;41.57
75913;BME280;64592;52.168;21.040;2023-04-03T16:20:27;101213.53;;;4.39;42.37
75913;BME280;64592;52.168;21.040;2023-04-03T16:25:31;101220.06;;;4.30;41.41
75913;BME280;64592;52.168;21.040;2023-04-03T16:30:33;101221.94;;;4.28;41.53
75913;BME280;64592;52.168;21.040;2023-04-03T16:35:35;101215.06;;;4.21;41.34
75913;BME280;64592;52.168;21.040;2023-04-03T16:40:38;101226.88;;;4.14;42.53
75913;BME280;64592;52.168;21.040;2023-04-03T16:45:39;101222.56;;;4.10;41.49
75913;BME280;64592;52.168;21.040;2023-04-03T16:50:41;101227.94;;;4.08;42.38
75913;BME280;64592;52.168;21.040;2023-04-03T16:55:44;101229.88;;;4.05;42.37
75913;BME280;64592;52.168;21.040;2023-04-03T17:00:46;101235.34;;;4.00;42.04
75913;BME280;64592;52.168;21.040;2023-04-03T17:05:48;101244.34;;;3.98;42.84
75913;BME280;64592;52.168;21.040;2023-04-03T17:10:52;101242.44;;;4.01;42.09
75913;BME280;64592;52.168;21.040;2023-04-03T17:15:55;101238.41;;;3.89;42.87
75913;BME280;64592;52.168;21.040;2023-04-03T17:20:57;101253.59;;;3.86;43.25
75913;BME280;64592;52.168;21.040;2023-04-03T17:26:00;101250.19;;;3.82;43.92
75913;BME280;64592;52.168;21.040;2023-04-03T17:31:02;101258.28;;;3.79;44.45
75913;BME280;64592;52.168;21.040;2023-04-03T17:36:05;101265.34;;;3.80;44.75
75913;BME280;64592;52.168;21.040;2023-04-03T17:41:08;101268.03;;;3.80;44.47
75913;BME280;64592;52.168;21.040;2023-04-03T17:46:10;101275.28;;;3.77;44.31
75913;BME280;64592;52.168;21.040;2023-04-03T17:51:15;101279.72;;;3.76;44.09
75913;BME280;64592;52.168;21.040;2023-04-03T17:56:20;101280.53;;;3.78;44.27
75913;BME280;64592;52.168;21.040;2023-04-03T18:01:24;101278.91;;;3.74;44.14
75913;BME280;64592;52.168;21.040;2023-04-03T18:06:30;101273.78;;;3.68;44.39
75913;BME280;64592;52.168;21.040;2023-04-03T18:11:34;101278.44;;;3.62;45.05
75913;BME280;64592;52.168;21.040;2023-04-03T18:16:36;101284.72;;;3.59;45.25
75913;BME280;64592;52.168;21.040;2023-04-03T18:21:38;101280.44;;;3.55;45.48
75913;BME280;64592;52.168;21.040;2023-04-03T18:26:43;101283.19;;;3.52;46.30
75913;BME280;64592;52.168;21.040;2023-04-03T18:31:49;101289.41;;;3.51;46.59
75913;BME280;64592;52.168;21.040;2023-04-03T18:36:51;101287.66;;;3.50;46.23
75913;BME280;64592;52.168;21.040;2023-04-03T18:41:55;101293.84;;;3.52;46.81
75913;BME280;64592;52.168;21.040;2023-04-03T18:46:59;101293.13;;;3.47;46.74
75913;BME280;64592;52.168;21.040;2023-04-03T18:52:02;101298.44;;;3.47;47.57
75913;BME280;64592;52.168;21.040;2023-04-03T18:57:05;101294.03;;;3.46;48.20
75913;BME280;64592;52.168;21.040;2023-04-03T19:02:07;101298.81;;;3.35;50.43
75913;BME280;64592;52.168;21.040;2023-04-03T19:07:10;101298.28;;;3.24;51.45
75913;BME280;64592;52.168;21.040;2023-04-03T19:12:13;101288.50;;;3.24;51.99
75913;BME280;64592;52.168;21.040;2023-04-03T19:17:15;101288.34;;;3.29;52.29
75913;BME280;64592;52.168;21.040;2023-04-03T19:22:16;101279.03;;;3.14;52.71
75913;BME280;64592;52.168;21.040;2023-04-03T19:27:19;101289.78;;;3.11;53.17
75913;BME280;64592;52.168;21.040;2023-04-03T19:32:22;101295.50;;;2.97;53.88
75913;BME280;64592;52.168;21.040;2023-04-03T19:37:24;101296.44;;;2.96;54.18
75913;BME280;64592;52.168;21.040;2023-04-03T19:42:28;101299.13;;;2.95;54.55
75913;BME280;64592;52.168;21.040;2023-04-03T19:47:30;101294.06;;;2.86;54.06
75913;BME280;64592;52.168;21.040;2023-04-03T19:52:32;101313.66;;;2.83;54.13
75913;BME280;64592;52.168;21.040;2023-04-03T19:57:35;101304.56;;;2.90;54.26
75913;BME280;64592;52.168;21.040;2023-04-03T20:02:37;101316.28;;;2.85;53.89
75913;BME280;64592;52.168;21.040;2023-04-03T20:07:39;101307.59;;;2.78;54.18
75913;BME280;64592;52.168;21.040;2023-04-03T20:12:42;101316.44;;;2.80;54.61
75913;BME280;64592;52.168;21.040;2023-04-03T20:17:44;101314.78;;;2.74;54.87
75913;BME280;64592;52.168;21.040;2023-04-03T20:22:45;101307.84;;;2.69;55.36
75913;BME280;64592;52.168;21.040;2023-04-03T20:27:48;101306.09;;;2.68;55.17
75913;BME280;64592;52.168;21.040;2023-04-03T20:32:52;101308.66;;;2.72;55.14
75913;BME280;64592;52.168;21.040;2023-04-03T20:37:55;101304.44;;;2.64;55.43
75913;BME280;64592;52.168;21.040;2023-04-03T20:42:58;101314.28;;;2.60;55.51
75913;BME280;64592;52.168;21.040;2023-04-03T20:48:01;101306.47;;;2.54;56.06
75913;BME280;64592;52.168;21.040;2023-04-03T20:53:05;101313.69;;;2.51;55.89
75913;BME280;64592;52.168;21.040;2023-04-03T20:58:08;101313.84;;;2.45;56.39
75913;BME280;64592;52.168;21.040;2023-04-03T21:03:10;101321.09;;;2.38;56.48
75913;BME280;64592;52.168;21.040;2023-04-03T21:19:33;101318.38;;;2.07;58.39
75913;BME280;64592;52.168;21.040;2023-04-03T21:24:35;101309.34;;;2.14;58.29
75913;BME280;64592;52.168;21.040;2023-04-03T21:29:37;101313.97;;;2.06;58.37
75913;BME280;64592;52.168;21.040;2023-04-03T21:34:41;101314.22;;;1.95;58.63
75913;BME280;64592;52.168;21.040;2023-04-03T21:39:43;101323.97;;;1.97;58.69
75913;BME280;64592;52.168;21.040;2023-04-03T21:44:44;101308.78;;;2.00;58.32
75913;BME280;64592;52.168;21.040;2023-04-03T21:49:49;101327.09;;;1.77;58.97
75913;BME280;64592;52.168;21.040;2023-04-03T21:54:51;101326.97;;;1.83;59.55
75913;BME280;64592;52.168;21.040;2023-04-03T21:59:53;101309.22;;;1.83;59.47
75913;BME280;64592;52.168;21.040;2023-04-03T22:04:56;101315.47;;;1.81;59.60
75913;BME280;64592;52.168;21.040;2023-04-03T22:09:58;101320.00;;;1.77;59.73
75913;BME280;64592;52.168;21.040;2023-04-03T22:15:00;101313.03;;;1.72;59.56
75913;BME280;64592;52.168;21.040;2023-04-03T22:20:04;101320.13;;;1.71;60.34
75913;BME280;64592;52.168;21.040;2023-04-03T22:25:07;101322.91;;;1.67;60.16
75913;BME280;64592;52.168;21.040;2023-04-03T22:30:10;101314.34;;;1.55;60.19
75913;BME280;64592;52.168;21.040;2023-04-03T22:35:13;101310.47;;;1.69;59.79
75913;BME280;64592;52.168;21.040;2023-04-03T22:40:15;101308.34;;;1.46;60.56
75913;BME280;64592;52.168;21.040;2023-04-03T22:45:17;101301.16;;;1.49;61.12
75913;BME280;64592;52.168;21.040;2023-04-03T22:50:20;101297.13;;;1.33;60.77
75913;BME280;64592;52.168;21.040;2023-04-03T22:55:22;101301.91;;;1.17;62.29
75913;BME280;64592;52.168;21.040;2023-04-03T23:00:24;101298.28;;;1.20;62.58
75913;BME280;64592;52.168;21.040;2023-04-03T23:05:28;101297.47;;;1.18;62.29
75913;BME280;64592;52.168;21.040;2023-04-03T23:10:30;101299.28;;;1.16;62.33
75913;BME280;64592;52.168;21.040;2023-04-03T23:15:31;101288.91;;;1.04;62.37
75913;BME280;64592;52.168;21.040;2023-04-03T23:20:34;101296.13;;;0.97;63.00
75913;BME280;64592;52.168;21.040;2023-04-03T23:25:36;101288.31;;;0.90;63.49
75913;BME280;64592;52.168;21.040;2023-04-03T23:30:38;101294.63;;;0.86;64.01
75913;BME280;64592;52.168;21.040;2023-04-03T23:35:43;101291.13;;;0.82;63.67
75913;BME280;64592;52.168;21.040;2023-04-03T23:40:45;101272.63;;;0.81;63.96
75913;BME280;64592;52.168;21.040;2023-04-03T23:45:47;101274.72;;;0.65;63.93
75913;BME280;64592;52.168;21.040;2023-04-03T23:50:50;101274.72;;;0.63;64.80
75913;BME280;64592;52.168;21.040;2023-04-03T23:55:52;101270.19;;;0.68;64.23
